createdAt,value
2019-03-16T00:00:15.991Z,6.90
2019-03-16T00:02:43.039Z,4.83
2019-03-16T00:05:10.121Z,6.33
2019-03-16T00:07:37.179Z,5.67
2019-03-16T00:10:04.270Z,5.10
2019-03-16T00:12:31.337Z,5.10
2019-03-16T00:14:58.387Z,4.80
2019-03-16T00:17:25.480Z,4.53
2019-03-16T00:19:52.558Z,5.67
2019-03-16T00:22:19.652Z,4.83
2019-03-16T00:24:46.841Z,4.87
2019-03-16T00:27:13.970Z,4.20
2019-03-16T00:29:41.011Z,4.83
2019-03-16T00:32:13.332Z,5.90
2019-03-16T00:34:37.028Z,5.40
2019-03-16T00:37:04.081Z,4.57
2019-03-16T00:39:31.127Z,4.07
2019-03-16T00:41:58.211Z,4.40
2019-03-16T00:44:25.348Z,3.90
2019-03-16T00:46:52.423Z,3.70
2019-03-16T00:49:19.519Z,3.77
2019-03-16T00:51:46.559Z,4.60
2019-03-16T00:54:13.653Z,4.40
2019-03-16T00:56:40.731Z,3.77
2019-03-16T00:59:07.786Z,2.57
2019-03-16T01:01:34.820Z,4.40
2019-03-16T01:04:01.897Z,3.40
2019-03-16T01:06:28.990Z,3.40
2019-03-16T01:08:56.020Z,3.17
2019-03-16T01:11:23.081Z,4.20
2019-03-16T01:13:50.130Z,2.90
2019-03-16T01:16:17.256Z,3.97
2019-03-16T01:18:44.304Z,4.10
2019-03-16T01:21:11.365Z,3.63
2019-03-16T01:23:38.437Z,2.70
2019-03-16T01:26:05.485Z,3.20
2019-03-16T01:28:32.522Z,2.80
2019-03-16T01:30:59.606Z,2.73
2019-03-16T01:33:26.656Z,3.47
2019-03-16T01:35:53.684Z,3.00
2019-03-16T01:38:20.756Z,3.23
2019-03-16T01:40:47.790Z,3.57
2019-03-16T01:43:15.033Z,3.67
2019-03-16T01:45:42.168Z,3.13
2019-03-16T01:48:09.231Z,2.80
2019-03-16T01:50:36.273Z,3.33
2019-03-16T01:53:03.345Z,2.67
2019-03-16T01:55:30.528Z,3.23
2019-03-16T01:57:57.578Z,3.47
2019-03-16T02:00:24.646Z,2.90
2019-03-16T02:02:55.429Z,3.53
2019-03-16T02:05:20.744Z,4.47
2019-03-16T02:07:48.317Z,3.30
2019-03-16T02:10:15.375Z,3.27
2019-03-16T02:12:42.420Z,3.23
2019-03-16T02:15:09.626Z,3.83
2019-03-16T02:17:36.694Z,3.20
2019-03-16T02:20:04.348Z,3.40
2019-03-16T02:22:31.417Z,2.97
2019-03-16T02:24:58.561Z,3.03
2019-03-16T02:27:25.598Z,2.63
2019-03-16T02:29:52.671Z,3.47
2019-03-16T02:32:19.723Z,3.07
2019-03-16T02:34:46.768Z,3.70
2019-03-16T02:37:13.858Z,3.83
2019-03-16T02:39:40.899Z,3.33
2019-03-16T02:42:07.942Z,5.03
2019-03-16T02:44:35.014Z,3.37
2019-03-16T02:47:02.063Z,5.07
2019-03-16T02:49:29.157Z,4.23
2019-03-16T02:51:56.228Z,4.33
2019-03-16T02:54:23.266Z,3.80
2019-03-16T02:56:50.347Z,3.60
2019-03-16T02:59:17.417Z,4.67
2019-03-16T03:01:44.457Z,5.93
2019-03-16T03:04:11.495Z,5.17
2019-03-16T03:06:38.573Z,4.63
2019-03-16T03:09:07.487Z,4.80
2019-03-16T03:11:34.550Z,4.83
2019-03-16T03:14:01.632Z,6.63
2019-03-16T03:16:28.659Z,6.73
2019-03-16T03:18:55.695Z,7.77
2019-03-16T03:21:22.776Z,8.73
2019-03-16T03:23:49.853Z,8.90
2019-03-16T03:26:16.883Z,10.00
2019-03-16T03:28:43.954Z,10.13
2019-03-16T03:31:11.009Z,10.40
2019-03-16T03:33:59.232Z,11.43
2019-03-16T03:36:07.243Z,10.70
2019-03-16T03:38:34.296Z,12.93
2019-03-16T03:41:02.088Z,13.03
2019-03-16T03:43:29.456Z,15.00
2019-03-16T03:45:56.548Z,16.77
2019-03-16T03:48:23.584Z,15.23
2019-03-16T03:50:50.669Z,16.63
2019-03-16T03:53:17.736Z,17.37
2019-03-16T03:55:45.060Z,16.53
2019-03-16T03:58:12.161Z,14.57
2019-03-16T04:00:39.199Z,15.70
2019-03-16T04:03:06.529Z,14.90
2019-03-16T04:05:33.594Z,14.87
2019-03-16T04:08:00.631Z,14.57
2019-03-16T04:10:27.947Z,14.47
2019-03-16T04:12:55.036Z,13.13
2019-03-16T04:15:22.073Z,12.20
2019-03-16T04:17:49.116Z,11.93
2019-03-16T04:20:16.171Z,10.83
2019-03-16T04:22:43.229Z,9.23
2019-03-16T04:25:10.262Z,10.47
2019-03-16T04:27:37.355Z,9.50
2019-03-16T04:30:04.810Z,9.10
2019-03-16T04:32:31.859Z,9.83
2019-03-16T04:34:59.842Z,8.07
2019-03-16T04:37:26.903Z,9.27
2019-03-16T04:39:53.946Z,9.10
2019-03-16T04:42:21.009Z,8.57
2019-03-16T04:44:48.156Z,8.37
2019-03-16T04:47:15.287Z,9.13
2019-03-16T04:49:45.373Z,7.97
2019-03-16T04:52:12.479Z,9.13
2019-03-16T04:54:39.528Z,8.17
2019-03-16T04:57:06.586Z,8.50
2019-03-16T04:59:33.753Z,8.63
2019-03-16T05:02:00.801Z,8.30
2019-03-16T05:04:27.847Z,9.83
2019-03-16T05:06:55.141Z,9.60
2019-03-16T05:09:22.185Z,9.80
2019-03-16T05:11:49.225Z,9.13
2019-03-16T05:14:16.308Z,9.73
2019-03-16T05:16:43.337Z,9.40
2019-03-16T05:19:10.374Z,10.43
2019-03-16T05:21:37.462Z,9.50
2019-03-16T05:24:04.504Z,9.40
2019-03-16T05:26:31.540Z,8.57
2019-03-16T05:28:58.621Z,9.47
2019-03-16T05:31:25.665Z,8.80
2019-03-16T05:33:52.704Z,9.40
2019-03-16T05:36:19.767Z,9.23
2019-03-16T05:38:46.851Z,9.73
2019-03-16T05:41:13.887Z,9.30
2019-03-16T05:43:40.923Z,9.97
2019-03-16T05:46:08.029Z,9.23
2019-03-16T05:48:35.061Z,8.90
2019-03-16T05:51:02.109Z,10.10
2019-03-16T05:53:29.218Z,9.80
2019-03-16T05:55:56.277Z,8.90
2019-03-16T05:58:23.332Z,9.60
2019-03-16T06:00:50.420Z,9.30
2019-03-16T06:03:17.498Z,9.87
2019-03-16T06:05:44.532Z,8.77
2019-03-16T06:08:11.570Z,9.07
2019-03-16T06:10:39.054Z,8.83
2019-03-16T06:13:06.118Z,8.30
2019-03-16T06:15:33.162Z,8.90
2019-03-16T06:18:00.278Z,9.20
2019-03-16T06:20:27.318Z,9.37
2019-03-16T06:22:54.364Z,8.00
2019-03-16T06:25:21.440Z,7.73
2019-03-16T06:27:48.504Z,7.10
2019-03-16T06:30:15.543Z,6.17
2019-03-16T06:32:42.628Z,7.00
2019-03-16T06:35:23.349Z,6.70
2019-03-16T06:37:38.623Z,7.23
2019-03-16T06:40:06.024Z,6.50
2019-03-16T06:42:33.099Z,7.30
2019-03-16T06:45:00.364Z,8.40
2019-03-16T06:47:27.574Z,8.07
2019-03-16T06:49:54.683Z,8.33
2019-03-16T06:52:21.830Z,9.30
2019-03-16T06:54:48.888Z,8.93
2019-03-16T06:57:16.035Z,7.73
2019-03-16T06:59:43.133Z,7.90
2019-03-16T07:02:10.187Z,7.93
2019-03-16T07:04:37.261Z,6.17
2019-03-16T07:07:05.227Z,5.40
2019-03-16T07:09:32.277Z,4.90
2019-03-16T07:11:59.337Z,4.13
2019-03-16T07:14:26.419Z,5.20
2019-03-16T07:17:02.098Z,4.40
2019-03-16T07:19:22.512Z,3.27
2019-03-16T07:21:49.608Z,2.93
2019-03-16T07:24:16.700Z,2.70
2019-03-16T07:26:43.826Z,3.00
2019-03-16T07:29:10.925Z,2.70
2019-03-16T07:31:38.004Z,2.90
2019-03-16T07:34:05.046Z,2.90
2019-03-16T07:36:32.176Z,2.70
2019-03-16T07:38:59.230Z,2.30
2019-03-16T07:41:26.265Z,2.47
2019-03-16T07:43:53.385Z,2.23
2019-03-16T07:46:20.497Z,2.57
2019-03-16T07:48:47.567Z,1.87
2019-03-16T07:51:14.684Z,2.07
2019-03-16T07:53:41.761Z,1.90
2019-03-16T07:56:08.840Z,2.50
2019-03-16T07:58:35.926Z,2.07
2019-03-16T08:01:03.607Z,3.00
2019-03-16T08:03:30.770Z,2.80
2019-03-16T08:05:57.897Z,1.80
2019-03-16T08:08:24.966Z,2.77
2019-03-16T08:10:52.037Z,3.77
2019-03-16T08:13:19.164Z,2.43
2019-03-16T08:15:46.203Z,2.33
2019-03-16T08:18:13.253Z,2.57
2019-03-16T08:20:40.572Z,2.63
2019-03-16T08:23:07.616Z,2.00
2019-03-16T08:25:34.682Z,2.43
2019-03-16T08:28:01.790Z,2.80
2019-03-16T08:30:28.866Z,2.40
2019-03-16T08:32:57.443Z,2.23
2019-03-16T08:35:24.586Z,2.50
2019-03-16T08:37:51.635Z,3.27
2019-03-16T08:40:18.694Z,2.67
2019-03-16T08:42:45.776Z,2.30
2019-03-16T08:45:12.820Z,2.60
2019-03-16T08:47:39.910Z,2.97
2019-03-16T08:50:07.035Z,2.70
2019-03-16T08:52:34.073Z,2.77
2019-03-16T08:55:01.112Z,2.70
2019-03-16T08:57:28.217Z,2.87
2019-03-16T08:59:55.278Z,2.50
2019-03-16T09:02:22.769Z,2.13
2019-03-16T09:04:49.855Z,2.30
2019-03-16T09:07:16.925Z,2.03
2019-03-16T09:09:43.988Z,1.60
2019-03-16T09:12:11.199Z,1.93
2019-03-16T09:14:38.250Z,1.70
2019-03-16T09:17:05.310Z,2.07
2019-03-16T09:19:32.412Z,1.63
2019-03-16T09:21:59.461Z,1.83
2019-03-16T09:24:26.564Z,1.67
2019-03-16T09:26:53.692Z,1.20
2019-03-16T09:29:20.781Z,1.10
2019-03-16T09:31:47.967Z,1.20
2019-03-16T09:34:15.089Z,1.60
2019-03-16T09:36:42.282Z,1.30
2019-03-16T09:39:09.367Z,1.30
2019-03-16T09:41:36.520Z,1.60
2019-03-16T09:44:04.025Z,1.57
2019-03-16T09:46:31.259Z,1.17
2019-03-16T09:48:58.330Z,1.53
2019-03-16T09:51:25.409Z,1.40
2019-03-16T09:57:24.039Z,1.50
2019-03-16T09:59:51.098Z,1.63
2019-03-16T10:02:18.496Z,2.00
2019-03-16T10:04:45.596Z,2.17
2019-03-16T10:07:12.644Z,1.67
2019-03-16T10:09:39.747Z,2.20
2019-03-16T10:12:06.781Z,1.77
2019-03-16T10:14:37.038Z,2.23
2019-03-16T10:17:03.027Z,1.60
2019-03-16T10:19:30.108Z,1.90
2019-03-16T10:21:57.164Z,1.90
2019-03-16T10:24:24.240Z,2.30
2019-03-16T10:26:51.292Z,1.70
2019-03-16T10:29:18.368Z,1.57
2019-03-16T10:31:45.473Z,1.77
2019-03-16T10:34:12.594Z,1.50
2019-03-16T10:36:39.715Z,1.47
2019-03-16T10:39:06.800Z,1.37
2019-03-16T10:41:33.922Z,1.53
2019-03-16T10:44:00.975Z,1.50
2019-03-16T10:46:28.096Z,1.33
2019-03-16T10:48:55.419Z,1.30
2019-03-16T10:51:22.483Z,1.57
2019-03-16T10:53:49.523Z,1.47
2019-03-16T10:56:16.768Z,1.40
2019-03-16T10:58:55.749Z,1.40
2019-03-16T11:01:12.808Z,0.83
2019-03-16T11:03:40.078Z,0.67
2019-03-16T11:06:07.326Z,0.73
2019-03-16T11:08:34.462Z,1.23
2019-03-16T11:11:01.530Z,0.97
2019-03-16T11:13:28.594Z,1.53
2019-03-16T11:15:55.819Z,1.13
2019-03-16T11:18:22.895Z,1.00
2019-03-16T11:20:49.976Z,1.23
2019-03-16T11:23:17.047Z,1.00
2019-03-16T11:25:44.106Z,1.30
2019-03-16T11:28:11.174Z,1.53
2019-03-16T11:30:38.270Z,1.60
2019-03-16T11:33:05.324Z,1.43
2019-03-16T11:35:32.380Z,1.30
2019-03-16T11:37:59.442Z,1.60
2019-03-16T11:40:26.697Z,1.20
2019-03-16T11:42:53.781Z,2.37
2019-03-16T11:45:20.869Z,1.60
2019-03-16T11:47:47.959Z,2.00
2019-03-16T11:50:15.013Z,1.27
2019-03-16T11:52:42.123Z,1.30
2019-03-16T11:55:09.296Z,2.10
2019-03-16T11:57:36.343Z,1.27
2019-03-16T12:00:04.313Z,1.63
2019-03-16T12:02:31.548Z,1.40
2019-03-16T12:04:58.598Z,1.07
2019-03-16T12:07:25.630Z,1.10
2019-03-16T12:09:52.989Z,1.70
2019-03-16T12:12:20.105Z,1.33
2019-03-16T12:14:47.170Z,1.30
2019-03-16T12:17:14.279Z,1.57
2019-03-16T12:19:41.319Z,1.70
2019-03-16T12:22:08.407Z,1.57
2019-03-16T12:24:35.529Z,1.50
2019-03-16T12:27:02.596Z,1.30
2019-03-16T12:29:34.240Z,1.70
2019-03-16T12:31:58.625Z,1.87
2019-03-16T12:34:25.965Z,1.50
2019-03-16T12:36:53.000Z,1.77
2019-03-16T12:39:20.122Z,2.50
2019-03-16T12:41:47.187Z,2.20
2019-03-16T12:44:14.248Z,1.97
2019-03-16T12:46:41.358Z,1.53
2019-03-16T12:49:08.484Z,2.13
2019-03-16T12:51:35.565Z,1.53
2019-03-16T12:54:02.636Z,2.30
2019-03-16T12:56:29.714Z,2.03
2019-03-16T12:58:56.763Z,1.67
2019-03-16T13:01:23.962Z,2.00
2019-03-16T13:03:51.021Z,2.00
2019-03-16T13:06:19.247Z,1.83
2019-03-16T13:08:46.369Z,2.03
2019-03-16T13:11:13.458Z,1.60
2019-03-16T13:13:40.528Z,1.93
2019-03-16T13:16:07.669Z,1.33
2019-03-16T13:18:34.714Z,1.33
2019-03-16T13:21:01.792Z,1.83
2019-03-16T13:23:28.887Z,1.30
2019-03-16T13:25:55.917Z,1.47
2019-03-16T13:28:22.984Z,1.60
2019-03-16T13:30:50.135Z,1.43
2019-03-16T13:33:17.269Z,1.20
2019-03-16T13:35:44.357Z,1.67
2019-03-16T13:38:11.453Z,1.10
2019-03-16T13:40:38.493Z,1.60
2019-03-16T13:43:05.571Z,1.10
2019-03-16T13:45:32.674Z,1.27
2019-03-16T13:48:00.204Z,1.37
2019-03-16T13:50:27.250Z,1.40
2019-03-16T13:52:54.503Z,1.37
2019-03-16T13:55:21.603Z,1.10
2019-03-16T13:57:48.670Z,1.43
2019-03-16T14:00:16.120Z,1.40
2019-03-16T14:02:43.264Z,1.40
2019-03-16T14:05:10.358Z,1.90
2019-03-16T14:07:37.735Z,1.37
2019-03-16T14:10:06.603Z,1.87
2019-03-16T14:12:33.692Z,1.97
2019-03-16T14:15:00.780Z,1.93
2019-03-16T14:17:28.191Z,1.47
2019-03-16T14:19:55.242Z,1.23
2019-03-16T14:22:22.331Z,2.23
2019-03-16T14:24:49.555Z,1.70
2019-03-16T14:27:16.893Z,1.53
2019-03-16T14:29:44.284Z,1.60
2019-03-16T14:32:11.580Z,1.90
2019-03-16T14:34:38.632Z,2.00
2019-03-16T14:37:05.689Z,1.40
2019-03-16T14:39:32.830Z,1.47
2019-03-16T14:42:00.030Z,1.60
2019-03-16T14:44:27.111Z,1.50
2019-03-16T14:46:54.311Z,2.00
2019-03-16T14:49:21.461Z,1.73
2019-03-16T14:51:48.589Z,1.93
2019-03-16T14:54:15.667Z,1.63
2019-03-16T14:56:42.757Z,2.00
2019-03-16T14:59:09.822Z,2.20
2019-03-16T15:01:37.126Z,1.73
2019-03-16T15:04:04.195Z,2.30
2019-03-16T15:06:31.274Z,2.10
2019-03-16T15:08:58.595Z,1.87
2019-03-16T15:11:25.635Z,2.20
2019-03-16T15:13:52.775Z,1.70
2019-03-16T15:16:19.838Z,1.83
2019-03-16T15:18:46.937Z,1.80
2019-03-16T15:21:14.081Z,1.50
2019-03-16T15:23:41.143Z,2.13
2019-03-16T15:26:08.214Z,2.40
2019-03-16T15:28:35.348Z,1.67
2019-03-16T15:31:02.471Z,1.70
2019-03-16T15:33:29.587Z,1.87
2019-03-16T15:35:56.729Z,1.93
2019-03-16T15:38:23.847Z,1.50
2019-03-16T15:40:50.936Z,1.73
2019-03-16T15:43:18.041Z,2.20
2019-03-16T15:45:45.281Z,1.50
2019-03-16T15:48:12.421Z,1.73
2019-03-16T15:50:39.491Z,1.97
2019-03-16T15:53:06.616Z,2.03
2019-03-16T15:55:33.687Z,1.70
2019-03-16T15:58:08.004Z,1.97
2019-03-16T16:00:47.944Z,1.70
2019-03-16T16:03:15.038Z,1.40
2019-03-16T16:05:42.088Z,1.73
2019-03-16T16:08:09.166Z,1.50
2019-03-16T16:10:36.311Z,1.97
2019-03-16T16:13:03.418Z,2.03
2019-03-16T16:15:30.476Z,1.97
2019-03-16T16:17:57.566Z,1.30
2019-03-16T16:20:24.631Z,2.10
2019-03-16T16:22:51.729Z,1.83
2019-03-16T16:25:18.847Z,3.10
2019-03-16T16:27:46.013Z,1.50
2019-03-16T16:30:13.171Z,2.10
2019-03-16T16:32:55.351Z,2.03
2019-03-16T16:35:22.403Z,2.20
2019-03-16T16:37:49.450Z,1.93
2019-03-16T16:40:16.587Z,1.30
2019-03-16T16:42:43.679Z,1.70
2019-03-16T16:45:10.884Z,1.90
2019-03-16T16:47:38.436Z,1.83
2019-03-16T16:50:07.376Z,1.90
2019-03-16T16:52:34.458Z,2.00
2019-03-16T16:55:01.505Z,1.77
2019-03-16T16:57:28.600Z,1.60
2019-03-16T16:59:58.357Z,1.70
2019-03-16T17:02:24.587Z,1.87
2019-03-16T17:04:51.899Z,2.30
2019-03-16T17:07:18.973Z,1.80
2019-03-16T17:09:46.088Z,1.70
2019-03-16T17:12:13.212Z,2.03
2019-03-16T17:14:40.298Z,2.07
2019-03-16T17:17:07.335Z,1.60
2019-03-16T17:19:34.411Z,2.23
2019-03-16T17:22:01.473Z,1.60
2019-03-16T17:24:28.743Z,2.10
2019-03-16T17:26:55.826Z,1.67
2019-03-16T17:29:22.898Z,1.87
2019-03-16T17:31:50.154Z,2.30
2019-03-16T17:34:17.223Z,1.67
2019-03-16T17:36:44.276Z,1.63
2019-03-16T17:39:11.379Z,2.50
2019-03-16T17:41:38.465Z,2.00
2019-03-16T17:44:05.529Z,2.23
2019-03-16T17:46:32.612Z,3.03
2019-03-16T17:49:01.457Z,2.47
2019-03-16T17:51:28.530Z,2.17
2019-03-16T17:53:55.598Z,2.40
2019-03-16T17:56:22.683Z,2.17
2019-03-16T17:58:49.750Z,2.30
2019-03-16T18:01:16.948Z,2.80
2019-03-16T18:03:44.026Z,2.00
2019-03-16T18:06:11.141Z,2.30
2019-03-16T18:08:38.212Z,2.50
2019-03-16T18:11:05.510Z,2.60
2019-03-16T18:13:32.632Z,2.20
2019-03-16T18:15:59.705Z,2.27
2019-03-16T18:18:26.786Z,2.47
2019-03-16T18:20:54.321Z,2.30
2019-03-16T18:23:21.372Z,2.53
2019-03-16T18:25:48.440Z,3.27
2019-03-16T18:28:15.581Z,2.50
2019-03-16T18:30:42.726Z,4.97
2019-03-16T18:33:09.794Z,2.80
2019-03-16T18:35:36.924Z,2.47
2019-03-16T18:38:03.994Z,2.97
2019-03-16T18:40:31.072Z,2.97
2019-03-16T18:42:58.200Z,4.13
2019-03-16T18:45:25.290Z,3.57
2019-03-16T18:47:52.355Z,3.87
2019-03-16T18:50:19.496Z,4.00
2019-03-16T18:52:46.595Z,4.47
2019-03-16T18:55:13.667Z,4.60
2019-03-16T18:57:43.029Z,4.30
2019-03-16T19:00:11.010Z,4.30
2019-03-16T19:02:38.079Z,4.40
2019-03-16T19:05:05.760Z,4.73
2019-03-16T19:07:32.867Z,4.93
2019-03-16T19:09:59.982Z,5.03
2019-03-16T19:12:27.055Z,5.40
2019-03-16T19:14:54.254Z,4.90
2019-03-16T19:17:21.323Z,5.20
2019-03-16T19:19:48.482Z,5.27
2019-03-16T19:22:15.653Z,5.23
2019-03-16T19:24:42.752Z,5.30
2019-03-16T19:27:09.828Z,4.90
2019-03-16T19:29:36.977Z,4.43
2019-03-16T19:32:04.069Z,4.67
2019-03-16T19:34:31.167Z,4.30
2019-03-16T19:36:58.283Z,4.60
2019-03-16T19:39:25.401Z,4.17
2019-03-16T19:41:52.597Z,4.60
2019-03-16T19:44:19.763Z,3.93
2019-03-16T19:46:46.841Z,4.50
2019-03-16T19:49:14.030Z,4.57
2019-03-16T19:51:41.216Z,4.37
2019-03-16T19:54:08.472Z,4.50
2019-03-16T19:56:35.562Z,4.60
2019-03-16T19:59:02.805Z,4.87
2019-03-16T20:01:29.898Z,4.17
2019-03-16T20:03:57.020Z,4.87
2019-03-16T20:06:25.905Z,4.97
2019-03-16T20:08:53.175Z,4.80
2019-03-16T20:11:20.386Z,5.60
2019-03-16T20:13:47.495Z,5.07
2019-03-16T20:16:14.623Z,5.03
2019-03-16T20:18:41.956Z,3.80
2019-03-16T20:21:09.011Z,4.30
2019-03-16T20:23:36.134Z,4.67
2019-03-16T20:26:03.206Z,4.43
2019-03-16T20:28:30.398Z,4.67
2019-03-16T20:30:57.498Z,4.57
2019-03-16T20:33:24.587Z,4.20
2019-03-16T20:35:51.824Z,4.17
2019-03-16T20:38:18.954Z,4.43
2019-03-16T20:40:46.044Z,4.43
2019-03-16T20:43:13.126Z,4.33
2019-03-16T20:45:43.248Z,5.13
2019-03-16T20:48:10.289Z,4.17
2019-03-16T20:50:37.551Z,4.93
2019-03-16T20:53:04.887Z,4.43
2019-03-16T20:55:34.295Z,4.47
2019-03-16T20:58:00.978Z,4.30
2019-03-16T21:00:28.122Z,4.77
2019-03-16T21:02:55.220Z,4.43
2019-03-16T21:05:22.277Z,4.47
2019-03-16T21:07:49.393Z,4.73
2019-03-16T21:10:16.524Z,4.20
2019-03-16T21:12:43.595Z,4.57
2019-03-16T21:15:10.762Z,4.73
2019-03-16T21:17:37.977Z,5.10
2019-03-16T21:20:06.275Z,4.90
2019-03-16T21:22:38.582Z,4.57
2019-03-16T21:25:02.543Z,5.70
2019-03-16T21:27:29.632Z,5.00
2019-03-16T21:29:57.797Z,5.20
2019-03-16T21:32:24.871Z,4.87
2019-03-16T21:34:51.964Z,4.00
2019-03-16T21:37:19.091Z,4.60
2019-03-16T21:39:46.502Z,4.67
2019-03-16T21:42:13.608Z,4.77
2019-03-16T21:44:40.795Z,4.77
2019-03-16T21:47:08.142Z,5.23
2019-03-16T21:49:35.224Z,5.00
2019-03-16T21:52:02.979Z,4.57
2019-03-16T21:54:30.187Z,4.37
2019-03-16T21:56:57.252Z,4.70
2019-03-16T21:59:26.399Z,4.30
2019-03-16T22:01:53.398Z,4.63
2019-03-16T22:04:20.717Z,4.50
2019-03-16T22:06:47.870Z,5.00
2019-03-16T22:09:15.007Z,5.13
2019-03-16T22:11:42.149Z,4.03
2019-03-16T22:14:09.214Z,4.83
2019-03-16T22:16:36.358Z,4.50
2019-03-16T22:19:03.473Z,4.43
2019-03-16T22:21:30.594Z,3.87
2019-03-16T22:23:57.732Z,4.20
2019-03-16T22:26:24.828Z,4.00
2019-03-16T22:28:51.894Z,4.40
2019-03-16T22:31:19.013Z,4.00
2019-03-16T22:33:54.387Z,4.33
2019-03-16T22:36:15.049Z,3.70
2019-03-16T22:38:42.121Z,3.87
2019-03-16T22:41:09.343Z,3.60
2019-03-16T22:43:36.416Z,4.37
2019-03-16T22:46:03.524Z,3.77
2019-03-16T22:48:30.645Z,4.47
2019-03-16T22:50:57.843Z,4.33
2019-03-16T22:53:24.910Z,4.53
2019-03-16T22:55:52.038Z,3.53
2019-03-16T22:58:19.451Z,4.37
2019-03-16T23:00:48.653Z,3.77
2019-03-16T23:03:16.157Z,3.97
2019-03-16T23:05:43.281Z,4.40
2019-03-16T23:08:10.450Z,4.33
2019-03-16T23:10:37.547Z,3.63
2019-03-16T23:13:04.656Z,3.67
2019-03-16T23:15:31.776Z,3.67
2019-03-16T23:18:00.390Z,4.20
2019-03-16T23:20:27.466Z,4.40
2019-03-16T23:22:54.604Z,3.30
2019-03-16T23:25:21.922Z,3.70
2019-03-16T23:27:49.006Z,4.30
2019-03-16T23:30:16.086Z,3.93
2019-03-16T23:32:43.198Z,3.77
2019-03-16T23:35:10.300Z,3.60
2019-03-16T23:37:37.423Z,3.30
2019-03-16T23:40:04.709Z,3.97
2019-03-16T23:42:31.844Z,3.70
2019-03-16T23:44:59.160Z,3.23
2019-03-16T23:47:26.284Z,3.70
2019-03-16T23:49:53.386Z,3.00
2019-03-16T23:52:20.503Z,3.63
2019-03-16T23:54:47.600Z,3.33
2019-03-16T23:57:14.753Z,3.10
2019-03-16T23:59:41.979Z,3.20
